createdAt,value
2022-12-25T00:00:39.940Z,6.05
2022-12-25T00:03:07.187Z,3.35
2022-12-25T00:05:34.084Z,6.32
2022-12-25T00:08:00.502Z,3.95
2022-12-25T00:10:26.945Z,3.50
2022-12-25T00:12:53.396Z,3.95
2022-12-25T00:15:19.853Z,4.43
2022-12-25T00:17:46.268Z,3.65
2022-12-25T00:20:12.909Z,6.75
2022-12-25T00:22:39.396Z,3.70
2022-12-25T00:25:06.013Z,4.88
2022-12-25T00:27:33.880Z,2.67
2022-12-25T00:30:00.969Z,3.38
2022-12-25T00:32:27.623Z,3.53
2022-12-25T00:34:54.041Z,5.30
2022-12-25T00:37:20.451Z,3.50
2022-12-25T00:39:48.877Z,3.30
2022-12-25T00:42:21.426Z,4.28
2022-12-25T00:44:48.779Z,5.72
2022-12-25T00:47:15.709Z,3.25
2022-12-25T00:49:42.543Z,4.45
2022-12-25T00:52:09.557Z,4.40
2022-12-25T00:54:36.246Z,6.40
2022-12-25T00:57:02.824Z,5.03
2022-12-25T00:59:34.479Z,5.22
2022-12-25T01:02:21.607Z,7.47
2022-12-25T01:04:49.451Z,6.85
2022-12-25T01:07:19.161Z,5.47
2022-12-25T01:10:04.802Z,6.45
2022-12-25T01:12:33.266Z,9.63
2022-12-25T01:14:59.755Z,5.18
2022-12-25T01:17:26.379Z,6.60
2022-12-25T01:19:52.808Z,10.50
2022-12-25T01:22:19.902Z,5.45
2022-12-25T01:24:46.403Z,6.88
2022-12-25T01:27:12.871Z,5.72
2022-12-25T01:29:39.449Z,6.80
2022-12-25T01:32:06.406Z,6.22
2022-12-25T01:34:32.981Z,3.50
2022-12-25T01:36:59.376Z,5.55
2022-12-25T01:39:26.739Z,5.10
2022-12-25T01:41:53.199Z,7.60
2022-12-25T01:44:19.617Z,5.35
2022-12-25T01:46:46.081Z,5.18
2022-12-25T01:49:21.078Z,6.70
2022-12-25T01:51:51.665Z,6.57
2022-12-25T01:54:25.136Z,5.13
2022-12-25T01:56:56.076Z,7.03
2022-12-25T01:59:26.128Z,4.18
2022-12-25T02:01:53.203Z,5.38
2022-12-25T02:04:38.592Z,5.88
2022-12-25T02:07:19.866Z,6.63
2022-12-25T02:09:47.019Z,3.90
2022-12-25T02:12:22.009Z,4.43
2022-12-25T02:14:50.633Z,6.53
2022-12-25T02:17:38.670Z,6.15
2022-12-25T02:20:23.787Z,5.65
2022-12-25T02:23:27.580Z,7.95
2022-12-25T02:26:03.135Z,3.47
2022-12-25T02:28:37.133Z,4.57
2022-12-25T02:31:12.320Z,5.50
2022-12-25T02:34:05.409Z,3.80
2022-12-25T02:36:41.405Z,5.88
2022-12-25T02:39:39.489Z,6.43
2022-12-25T02:42:12.481Z,4.63
2022-12-25T02:45:02.113Z,4.97
2022-12-25T02:47:47.831Z,5.55
2022-12-25T02:50:34.129Z,9.30
2022-12-25T02:53:22.074Z,8.30
2022-12-25T02:56:08.533Z,5.43
2022-12-25T02:58:57.774Z,8.23
2022-12-25T03:01:48.539Z,5.50
2022-12-25T03:04:38.655Z,5.35
2022-12-25T03:07:08.009Z,7.03
2022-12-25T03:09:59.954Z,6.75
2022-12-25T03:12:46.176Z,6.95
2022-12-25T03:15:31.972Z,9.40
2022-12-25T03:18:02.989Z,5.95
2022-12-25T03:20:48.884Z,9.25
2022-12-25T03:23:38.978Z,7.97
2022-12-25T03:26:24.529Z,7.22
2022-12-25T03:28:51.007Z,7.45
2022-12-25T03:31:25.647Z,7.88
2022-12-25T03:34:27.655Z,7.93
2022-12-25T03:37:23.402Z,9.55
2022-12-25T03:40:33.881Z,8.48
2022-12-25T03:43:43.191Z,9.98
2022-12-25T03:46:34.547Z,10.45
2022-12-25T03:49:32.883Z,10.13
2022-12-25T03:52:20.685Z,12.63
2022-12-25T03:55:07.938Z,14.45
2022-12-25T03:57:53.819Z,13.75
2022-12-25T04:00:39.021Z,11.77
2022-12-25T04:03:23.970Z,12.50
2022-12-25T04:06:08.793Z,9.65
2022-12-25T04:08:53.724Z,10.55
2022-12-25T04:11:38.503Z,9.18
2022-12-25T04:14:23.369Z,10.10
2022-12-25T04:17:08.328Z,14.57
2022-12-25T04:19:53.323Z,11.95
2022-12-25T04:22:38.525Z,13.18
2022-12-25T04:25:23.875Z,15.10
2022-12-25T04:28:08.716Z,13.13
2022-12-25T04:30:53.494Z,12.90
2022-12-25T04:33:38.624Z,9.88
2022-12-25T04:36:12.358Z,13.25
2022-12-25T04:38:40.589Z,13.43
2022-12-25T04:41:11.787Z,13.88
2022-12-25T04:43:38.505Z,13.95
2022-12-25T04:46:05.777Z,12.45
2022-12-25T04:48:35.069Z,12.48
2022-12-25T04:51:19.317Z,12.55
2022-12-25T04:53:46.191Z,13.65
2022-12-25T04:56:13.068Z,12.95
2022-12-25T04:58:39.742Z,15.48
2022-12-25T05:01:06.288Z,16.45
2022-12-25T05:03:33.983Z,16.00
2022-12-25T05:06:01.597Z,17.83
2022-12-25T05:08:30.086Z,19.73
2022-12-25T05:10:56.575Z,18.10
2022-12-25T05:13:23.261Z,22.45
2022-12-25T05:15:49.952Z,21.90
2022-12-25T05:18:16.745Z,22.77
2022-12-25T05:20:43.396Z,23.85
2022-12-25T05:23:12.029Z,28.33
2022-12-25T05:25:39.757Z,26.30
2022-12-25T05:28:06.862Z,28.60
2022-12-25T05:30:34.901Z,26.75
2022-12-25T05:33:02.168Z,28.20
2022-12-25T05:35:28.689Z,31.30
2022-12-25T05:37:55.112Z,27.23
2022-12-25T05:40:21.548Z,38.08
2022-12-25T05:42:47.954Z,33.00
2022-12-25T05:45:14.443Z,40.38
2022-12-25T05:47:40.835Z,50.85
2022-12-25T05:50:07.982Z,36.58
2022-12-25T05:52:34.594Z,42.38
2022-12-25T05:55:01.125Z,52.05
2022-12-25T05:57:31.383Z,31.17
2022-12-25T05:59:58.217Z,36.15
2022-12-25T06:02:25.366Z,34.83
2022-12-25T06:04:52.011Z,36.13
2022-12-25T06:07:18.488Z,49.78
2022-12-25T06:09:44.903Z,37.47
2022-12-25T06:12:11.341Z,37.47
2022-12-25T06:14:37.797Z,75.32
2022-12-25T06:17:04.361Z,48.88
2022-12-25T06:19:30.909Z,145.48
2022-12-25T06:21:57.333Z,117.55
2022-12-25T06:24:23.911Z,76.85
2022-12-25T06:26:50.572Z,48.25
2022-12-25T06:29:17.419Z,203.32
2022-12-25T06:31:43.857Z,57.13
2022-12-25T06:34:10.342Z,73.72
2022-12-25T06:36:38.035Z,38.97
2022-12-25T06:39:04.654Z,43.97
2022-12-25T06:41:31.135Z,102.82
2022-12-25T06:44:00.205Z,83.88
2022-12-25T06:46:28.867Z,111.45
2022-12-25T06:48:56.765Z,154.23
2022-12-25T06:51:26.447Z,74.30
2022-12-25T06:53:54.473Z,50.10
2022-12-25T06:56:24.228Z,183.07
2022-12-25T06:58:56.096Z,106.18
2022-12-25T07:01:28.146Z,44.60
2022-12-25T07:03:58.372Z,39.65
2022-12-25T07:06:24.973Z,54.78
2022-12-25T07:08:51.808Z,48.63
2022-12-25T07:11:18.892Z,36.90
2022-12-25T07:13:45.352Z,39.38
2022-12-25T07:16:12.628Z,39.47
2022-12-25T07:18:39.500Z,38.88
2022-12-25T07:21:16.965Z,34.08
2022-12-25T07:23:44.588Z,41.13
2022-12-25T07:26:12.093Z,56.03
2022-12-25T07:28:39.387Z,59.53
2022-12-25T07:31:09.632Z,99.80
2022-12-25T07:33:36.308Z,41.50
2022-12-25T07:36:03.437Z,43.10
2022-12-25T07:38:30.205Z,70.97
2022-12-25T07:40:56.899Z,67.00
2022-12-25T07:43:23.395Z,128.77
2022-12-25T07:45:58.742Z,149.68
2022-12-25T07:48:27.024Z,77.38
2022-12-25T07:51:05.366Z,44.47
2022-12-25T07:53:32.925Z,47.40
2022-12-25T07:56:01.960Z,148.90
2022-12-25T07:58:29.564Z,47.42
2022-12-25T08:01:01.956Z,62.75
2022-12-25T08:03:28.625Z,48.63
2022-12-25T08:06:02.549Z,41.10
2022-12-25T08:08:29.559Z,44.60
2022-12-25T08:10:56.011Z,41.67
2022-12-25T08:13:22.423Z,46.30
2022-12-25T08:15:49.078Z,45.35
2022-12-25T08:18:15.718Z,38.10
2022-12-25T08:20:42.263Z,40.72
2022-12-25T08:23:09.014Z,40.50
2022-12-25T08:25:35.476Z,40.45
2022-12-25T08:28:01.959Z,41.38
2022-12-25T08:30:28.688Z,38.80
2022-12-25T08:32:55.608Z,40.00
2022-12-25T08:35:22.076Z,37.90
2022-12-25T08:37:48.481Z,53.72
2022-12-25T08:40:15.083Z,40.75
2022-12-25T08:42:41.470Z,33.47
2022-12-25T08:45:08.595Z,43.28
2022-12-25T08:47:34.990Z,47.25
2022-12-25T08:50:01.502Z,52.95
2022-12-25T08:52:28.873Z,53.92
2022-12-25T08:54:55.311Z,40.70
2022-12-25T08:57:21.695Z,51.30
2022-12-25T08:59:48.130Z,44.33
2022-12-25T09:02:16.805Z,39.30
2022-12-25T09:04:45.773Z,37.13
2022-12-25T09:07:12.234Z,36.28
2022-12-25T09:09:38.674Z,40.33
2022-12-25T09:12:05.205Z,34.10
2022-12-25T09:14:31.690Z,38.47
2022-12-25T09:16:58.254Z,35.65
2022-12-25T09:19:24.668Z,35.03
2022-12-25T09:21:51.054Z,34.65
2022-12-25T09:24:17.476Z,33.72
2022-12-25T09:26:43.932Z,29.70
2022-12-25T09:29:10.445Z,28.48
2022-12-25T09:31:36.881Z,33.30
2022-12-25T09:34:03.387Z,29.33
2022-12-25T09:36:29.872Z,27.88
2022-12-25T09:38:56.373Z,27.75
2022-12-25T09:41:33.348Z,23.58
2022-12-25T09:44:21.354Z,22.73
2022-12-25T09:46:53.720Z,24.17
2022-12-25T09:49:38.759Z,23.98
2022-12-25T09:52:11.779Z,33.90
2022-12-25T09:54:44.395Z,26.38
2022-12-25T09:57:12.919Z,27.98
2022-12-25T09:59:40.061Z,26.65
2022-12-25T10:02:41.251Z,22.00
2022-12-25T10:05:37.951Z,21.80
2022-12-25T10:08:16.595Z,26.63
2022-12-25T10:10:51.877Z,26.70
2022-12-25T10:13:52.598Z,42.78
2022-12-25T10:16:31.064Z,60.27
2022-12-25T10:19:06.421Z,37.65
2022-12-25T10:21:33.064Z,36.45
2022-12-25T10:24:16.556Z,34.92
2022-12-25T10:26:43.116Z,62.40
2022-12-25T10:29:14.590Z,45.35
2022-12-25T10:31:41.916Z,39.70
2022-12-25T10:34:12.052Z,36.85
2022-12-25T10:36:38.518Z,36.22
2022-12-25T10:39:04.972Z,34.33
2022-12-25T10:41:59.292Z,30.42
2022-12-25T10:44:26.360Z,33.53
2022-12-25T10:46:55.809Z,30.90
2022-12-25T10:49:25.134Z,29.90
2022-12-25T10:51:52.168Z,28.23
2022-12-25T10:54:31.405Z,30.30
2022-12-25T10:57:13.154Z,31.85
2022-12-25T10:59:47.843Z,27.85
2022-12-25T11:02:21.645Z,29.45
2022-12-25T11:04:48.652Z,26.13
2022-12-25T11:07:24.312Z,26.00
2022-12-25T11:10:02.668Z,24.73
2022-12-25T11:12:44.224Z,26.00
2022-12-25T11:15:40.401Z,24.77
2022-12-25T11:18:24.164Z,24.00
2022-12-25T11:20:52.735Z,22.77
2022-12-25T11:23:21.652Z,25.35
2022-12-25T11:26:01.515Z,24.63
2022-12-25T11:28:30.537Z,23.27
2022-12-25T11:31:01.293Z,21.38
2022-12-25T11:33:35.447Z,23.23
2022-12-25T11:36:08.747Z,20.75
2022-12-25T11:38:35.181Z,24.63
2022-12-25T11:41:04.394Z,23.17
2022-12-25T11:43:46.735Z,23.58
2022-12-25T11:46:31.337Z,22.83
2022-12-25T11:49:02.137Z,20.92
2022-12-25T11:51:34.901Z,23.33
2022-12-25T11:54:17.831Z,21.33
2022-12-25T11:56:44.355Z,18.08
2022-12-25T11:59:27.661Z,18.33
2022-12-25T12:02:18.869Z,16.85
2022-12-25T12:04:50.813Z,16.73
2022-12-25T12:07:25.210Z,14.88
2022-12-25T12:09:56.325Z,13.10
2022-12-25T12:12:22.678Z,12.63
2022-12-25T12:15:15.269Z,9.02
2022-12-25T12:17:41.655Z,11.65
2022-12-25T12:20:28.247Z,9.43
2022-12-25T12:22:55.006Z,8.93
2022-12-25T12:25:22.222Z,8.80
2022-12-25T12:27:59.781Z,7.18
2022-12-25T12:30:32.254Z,8.38
2022-12-25T12:33:02.145Z,8.18
2022-12-25T12:35:34.959Z,10.80
2022-12-25T12:38:11.922Z,7.20
2022-12-25T12:41:07.101Z,5.68
2022-12-25T12:43:43.006Z,7.43
2022-12-25T12:46:30.651Z,6.15
2022-12-25T12:49:21.693Z,6.45
2022-12-25T12:51:48.435Z,4.75
2022-12-25T12:54:24.086Z,7.90
2022-12-25T12:57:05.138Z,5.03
2022-12-25T12:59:43.442Z,4.22
2022-12-25T13:02:28.871Z,5.65
2022-12-25T13:05:35.720Z,5.38
2022-12-25T13:08:14.544Z,5.65
2022-12-25T13:10:46.749Z,5.13
2022-12-25T13:13:20.076Z,4.75
2022-12-25T13:15:49.699Z,6.38
2022-12-25T13:18:17.412Z,5.25
2022-12-25T13:20:54.865Z,5.18
2022-12-25T13:23:29.346Z,3.90
2022-12-25T13:25:58.392Z,4.70
2022-12-25T13:28:27.316Z,5.40
2022-12-25T13:30:53.949Z,6.47
2022-12-25T13:33:20.623Z,3.33
2022-12-25T13:35:47.363Z,4.03
2022-12-25T13:38:16.962Z,5.65
2022-12-25T13:41:14.544Z,4.60
2022-12-25T13:43:43.184Z,3.58
2022-12-25T13:46:14.428Z,5.03
2022-12-25T13:48:42.040Z,2.38
2022-12-25T13:51:16.693Z,3.75
2022-12-25T13:53:43.819Z,2.45
2022-12-25T13:56:15.001Z,3.40
2022-12-25T14:01:11.667Z,3.63
2022-12-25T14:03:45.367Z,3.13
2022-12-25T14:06:29.564Z,3.58
2022-12-25T14:08:58.396Z,4.22
2022-12-25T14:11:27.336Z,2.67
2022-12-25T14:13:59.862Z,2.38
2022-12-25T14:16:27.186Z,2.42
2022-12-25T14:18:55.621Z,3.17
2022-12-25T14:21:34.935Z,2.88
2022-12-25T14:24:01.605Z,3.35
2022-12-25T14:26:31.632Z,2.60
2022-12-25T14:29:15.602Z,3.35
2022-12-25T14:31:45.890Z,2.67
2022-12-25T14:34:24.200Z,3.40
2022-12-25T14:36:52.325Z,3.80
2022-12-25T14:39:37.016Z,5.72
2022-12-25T14:42:21.741Z,7.13
2022-12-25T14:45:03.926Z,3.63
2022-12-25T14:47:32.340Z,3.90
2022-12-25T14:49:59.874Z,5.47
2022-12-25T14:52:34.587Z,6.72
2022-12-25T14:55:04.739Z,4.25
2022-12-25T14:57:38.401Z,3.80
2022-12-25T15:00:24.375Z,6.05
2022-12-25T15:02:54.401Z,4.07
2022-12-25T15:05:30.380Z,3.17
2022-12-25T15:08:10.136Z,4.28
2022-12-25T15:13:26.131Z,7.72
2022-12-25T15:16:04.156Z,6.72
2022-12-25T15:18:36.374Z,6.60
2022-12-25T15:21:02.988Z,5.25
2022-12-25T15:23:29.476Z,4.25
2022-12-25T15:25:55.926Z,5.95
2022-12-25T15:28:22.398Z,6.20
2022-12-25T15:30:49.899Z,5.35
2022-12-25T15:33:18.489Z,6.45
2022-12-25T15:35:45.625Z,6.75
2022-12-25T15:38:13.356Z,7.45
2022-12-25T15:40:40.815Z,7.47
2022-12-25T15:43:14.484Z,5.90
2022-12-25T15:45:54.999Z,3.13
2022-12-25T15:48:21.427Z,5.82
2022-12-25T15:50:47.875Z,6.28
2022-12-25T15:53:14.408Z,5.30
2022-12-25T15:55:41.017Z,4.05
2022-12-25T15:58:12.277Z,2.90
2022-12-25T16:03:05.223Z,2.47
2022-12-25T16:05:31.739Z,2.60
2022-12-25T16:07:58.310Z,2.38
2022-12-25T16:10:25.034Z,4.20
2022-12-25T16:12:51.465Z,2.15
2022-12-25T16:15:18.036Z,4.10
2022-12-25T16:17:44.529Z,2.13
2022-12-25T16:20:11.291Z,1.98
2022-12-25T16:22:40.383Z,3.17
2022-12-25T16:25:18.830Z,2.28
2022-12-25T16:27:45.922Z,1.67
2022-12-25T16:30:15.085Z,1.90
2022-12-25T16:32:45.270Z,3.42
2022-12-25T16:35:12.254Z,1.50
2022-12-25T16:37:39.428Z,1.10
2022-12-25T16:40:09.472Z,1.42
2022-12-25T16:42:37.361Z,1.80
2022-12-25T16:45:04.292Z,1.55
2022-12-25T16:47:30.725Z,1.20
2022-12-25T16:49:57.154Z,2.22
2022-12-25T16:52:23.644Z,1.45
2022-12-25T16:54:50.096Z,1.95
2022-12-25T16:57:16.533Z,1.08
2022-12-25T16:59:43.347Z,3.67
2022-12-25T17:02:15.602Z,10.93
2022-12-25T17:04:42.826Z,17.00
2022-12-25T17:07:09.372Z,3.53
2022-12-25T17:09:42.095Z,2.00
2022-12-25T17:12:10.409Z,1.02
2022-12-25T17:14:36.839Z,2.50
2022-12-25T17:17:03.507Z,1.58
2022-12-25T17:19:30.108Z,1.83
2022-12-25T17:21:57.223Z,1.77
2022-12-25T17:24:23.741Z,1.55
2022-12-25T17:26:50.152Z,1.40
2022-12-25T17:29:21.615Z,1.58
2022-12-25T17:31:48.962Z,1.77
2022-12-25T17:34:15.448Z,1.70
2022-12-25T17:36:42.016Z,2.78
2022-12-25T17:39:09.783Z,1.38
2022-12-25T17:41:36.324Z,4.30
2022-12-25T17:44:02.853Z,2.17
2022-12-25T17:46:30.614Z,2.50
2022-12-25T17:48:58.810Z,1.35
2022-12-25T17:51:26.540Z,1.92
2022-12-25T17:53:55.808Z,1.27
2022-12-25T17:56:24.015Z,1.60
2022-12-25T17:58:52.570Z,3.33
2022-12-25T18:01:20.181Z,2.28
2022-12-25T18:03:47.172Z,1.85
2022-12-25T18:06:19.241Z,1.60
2022-12-25T18:08:46.718Z,2.53
2022-12-25T18:11:21.665Z,2.10
2022-12-25T18:13:51.874Z,4.20
2022-12-25T18:16:20.485Z,2.35
2022-12-25T18:18:51.880Z,3.00
2022-12-25T18:21:19.173Z,2.13
2022-12-25T18:23:46.318Z,2.92
2022-12-25T18:26:13.379Z,3.53
2022-12-25T18:28:39.974Z,3.75
2022-12-25T18:31:18.833Z,8.98
2022-12-25T18:33:45.836Z,32.67
2022-12-25T18:36:14.452Z,20.67
2022-12-25T18:38:41.415Z,19.67
2022-12-25T18:41:09.574Z,3.05
2022-12-25T18:43:52.988Z,2.38
2022-12-25T18:46:24.032Z,3.88
2022-12-25T18:48:51.481Z,2.75
2022-12-25T18:51:18.007Z,4.07
2022-12-25T18:53:44.948Z,2.17
2022-12-25T18:56:15.155Z,3.78
2022-12-25T18:58:42.698Z,2.35
2022-12-25T19:01:11.220Z,3.05
2022-12-25T19:03:37.655Z,3.53
2022-12-25T19:06:04.861Z,2.45
2022-12-25T19:08:31.328Z,3.10
2022-12-25T19:10:59.120Z,2.75
2022-12-25T19:13:26.364Z,4.47
2022-12-25T19:15:52.935Z,2.78
2022-12-25T19:18:19.399Z,3.33
2022-12-25T19:20:47.227Z,3.47
2022-12-25T19:23:13.621Z,2.85
2022-12-25T19:25:40.515Z,2.70
2022-12-25T19:28:06.972Z,4.50
2022-12-25T19:30:33.398Z,3.25
2022-12-25T19:32:59.780Z,3.53
2022-12-25T19:35:26.212Z,4.15
2022-12-25T19:37:52.722Z,3.67
2022-12-25T19:40:19.219Z,3.05
2022-12-25T19:42:45.721Z,2.80
2022-12-25T19:45:12.209Z,2.33
2022-12-25T19:47:38.608Z,4.40
2022-12-25T19:50:05.494Z,3.50
2022-12-25T19:52:31.919Z,3.40
2022-12-25T19:54:58.337Z,7.45
2022-12-25T19:57:24.771Z,4.57
2022-12-25T19:59:51.208Z,5.60
2022-12-25T20:02:17.745Z,5.63
2022-12-25T20:04:44.340Z,4.88
2022-12-25T20:07:10.837Z,5.75
2022-12-25T20:09:37.266Z,4.30
2022-12-25T20:12:03.883Z,3.67
2022-12-25T20:14:30.293Z,8.30
2022-12-25T20:16:57.612Z,5.13
2022-12-25T20:19:24.123Z,6.88
2022-12-25T20:21:50.532Z,7.13
2022-12-25T20:24:16.997Z,6.60
2022-12-25T20:26:46.537Z,6.35
2022-12-25T20:31:41.177Z,6.60
2022-12-25T20:34:10.156Z,6.57
2022-12-25T20:36:38.092Z,7.63
2022-12-25T20:39:08.531Z,6.53
2022-12-25T20:41:35.571Z,8.10
2022-12-25T20:44:04.034Z,10.68
2022-12-25T20:46:30.564Z,12.90
2022-12-25T20:48:57.056Z,15.18
2022-12-25T20:51:25.934Z,11.80
2022-12-25T20:53:53.384Z,10.10
2022-12-25T20:56:22.658Z,10.02
2022-12-25T20:58:53.559Z,9.27
2022-12-25T21:01:20.108Z,8.52
2022-12-25T21:03:46.778Z,7.78
2022-12-25T21:06:13.229Z,9.10
2022-12-25T21:08:41.003Z,7.43
2022-12-25T21:11:08.538Z,8.05
2022-12-25T21:13:38.171Z,9.10
2022-12-25T21:16:06.825Z,8.02
2022-12-25T21:18:33.743Z,8.00
2022-12-25T21:21:04.660Z,8.07
2022-12-25T21:23:33.192Z,8.55
2022-12-25T21:25:59.699Z,8.95
2022-12-25T21:28:27.128Z,7.50
2022-12-25T21:30:53.597Z,8.40
2022-12-25T21:33:39.536Z,8.55
2022-12-25T21:36:11.444Z,8.52
2022-12-25T21:38:38.204Z,11.68
2022-12-25T21:41:10.461Z,9.20
2022-12-25T21:43:39.048Z,9.45
2022-12-25T21:46:07.930Z,8.55
2022-12-25T21:48:36.343Z,12.02
2022-12-25T21:51:26.782Z,10.45
2022-12-25T21:53:53.204Z,10.00
2022-12-25T21:56:19.646Z,10.60
2022-12-25T21:58:47.052Z,11.85
2022-12-25T22:01:17.145Z,11.10
2022-12-25T22:03:44.397Z,10.43
2022-12-25T22:06:30.488Z,14.38
2022-12-25T22:08:57.212Z,10.60
2022-12-25T22:11:43.719Z,11.25
2022-12-25T22:14:51.405Z,13.07
2022-12-25T22:17:52.975Z,11.13
2022-12-25T22:20:36.847Z,14.00
2022-12-25T22:23:03.773Z,11.93
2022-12-25T22:25:30.423Z,12.82
2022-12-25T22:27:57.418Z,17.00
2022-12-25T22:30:26.819Z,14.52
2022-12-25T22:32:53.551Z,14.85
2022-12-25T22:35:20.618Z,20.13
2022-12-25T22:37:48.113Z,17.20
2022-12-25T22:40:16.871Z,16.58
2022-12-25T22:42:43.882Z,16.83
2022-12-25T22:45:11.555Z,17.40
2022-12-25T22:47:38.188Z,17.55
2022-12-25T22:50:05.115Z,16.10
2022-12-25T22:52:31.686Z,18.27
2022-12-25T22:54:58.143Z,16.00
2022-12-25T22:57:24.627Z,17.25
2022-12-25T22:59:52.763Z,16.92
2022-12-25T23:02:19.652Z,14.95
2022-12-25T23:04:46.176Z,15.85
2022-12-25T23:07:14.328Z,14.32
2022-12-25T23:09:41.725Z,15.18
2022-12-25T23:12:28.123Z,12.75
2022-12-25T23:14:54.962Z,15.77
2022-12-25T23:17:40.022Z,12.32
2022-12-25T23:20:26.007Z,13.00
2022-12-25T23:23:10.829Z,11.57
2022-12-25T23:25:55.651Z,13.27
2022-12-25T23:28:40.524Z,13.85
2022-12-25T23:31:07.718Z,13.90
2022-12-25T23:33:34.172Z,12.52
2022-12-25T23:36:00.799Z,13.65
2022-12-25T23:38:27.391Z,13.20
2022-12-25T23:40:53.802Z,9.35
2022-12-25T23:43:20.216Z,10.70
2022-12-25T23:45:46.644Z,8.93
2022-12-25T23:48:13.038Z,8.52
2022-12-25T23:50:39.446Z,7.53
2022-12-25T23:53:05.857Z,7.47
2022-12-25T23:55:33.511Z,8.15
2022-12-25T23:57:59.953Z,7.75
